createdAt,value
2023-08-29T00:00:39.401Z,99776.11
2023-08-29T00:06:05.897Z,99742.11
2023-08-29T00:11:11.709Z,99737.05
2023-08-29T00:16:18.073Z,99737.87
2023-08-29T00:21:23.783Z,99728.21
2023-08-29T00:26:29.476Z,99710.67
2023-08-29T00:31:35.450Z,99710.60
2023-08-29T00:36:40.986Z,99704.29
2023-08-29T00:41:50.377Z,99706.73
2023-08-29T00:46:56.254Z,99701.80
2023-08-29T00:52:03.652Z,99691.84
2023-08-29T00:57:09.762Z,99685.15
2023-08-29T01:02:15.573Z,99676.33
2023-08-29T01:07:21.104Z,99657.45
2023-08-29T01:12:43.671Z,99655.02
2023-08-29T01:17:56.049Z,99644.84
2023-08-29T01:23:15.374Z,99639.73
2023-08-29T01:28:23.078Z,99629.14
2023-08-29T01:33:29.192Z,99627.64
2023-08-29T01:38:34.796Z,99620.62
2023-08-29T01:43:40.490Z,99614.83
2023-08-29T01:48:46.486Z,99602.10
2023-08-29T01:53:52.012Z,99594.67
2023-08-29T01:59:00.156Z,99587.31
2023-08-29T02:04:06.202Z,99577.63
2023-08-29T02:09:12.300Z,99560.27
2023-08-29T02:14:18.037Z,99538.71
2023-08-29T02:19:23.773Z,99518.08
2023-08-29T02:24:30.250Z,99507.73
2023-08-29T02:29:36.533Z,99496.15
2023-08-29T02:34:42.380Z,99479.11
2023-08-29T02:39:47.910Z,99473.20
2023-08-29T02:44:53.504Z,99464.06
2023-08-29T02:50:00.025Z,99453.50
2023-08-29T02:55:09.055Z,99446.98
2023-08-29T03:00:16.777Z,99434.24
2023-08-29T03:05:23.114Z,99418.41
2023-08-29T03:10:28.934Z,99408.71
2023-08-29T03:15:35.588Z,99402.95
2023-08-29T03:20:43.279Z,99394.92
2023-08-29T03:25:49.417Z,99376.98
2023-08-29T03:30:55.321Z,99362.37
2023-08-29T03:36:01.361Z,99375.95
2023-08-29T03:41:07.324Z,99396.14
2023-08-29T03:46:12.990Z,99403.36
2023-08-29T03:51:18.638Z,99518.98
2023-08-29T03:56:24.351Z,99596.84
2023-08-29T04:01:30.601Z,99541.02
2023-08-29T04:06:36.416Z,99532.20
2023-08-29T04:11:41.985Z,99539.80
2023-08-29T04:16:48.974Z,99553.45
2023-08-29T04:21:54.670Z,99569.41
2023-08-29T04:27:00.526Z,99570.17
2023-08-29T04:32:07.115Z,99560.17
2023-08-29T04:37:12.770Z,99550.54
2023-08-29T04:42:18.570Z,99552.75
2023-08-29T04:47:24.355Z,99565.55
2023-08-29T04:52:30.373Z,99562.06
2023-08-29T04:57:36.084Z,99566.23
2023-08-29T05:02:41.697Z,99563.83
2023-08-29T05:07:47.611Z,99540.88
2023-08-29T05:12:53.289Z,99550.48
2023-08-29T05:17:59.199Z,99559.27
2023-08-29T05:23:05.289Z,99555.34
2023-08-29T05:28:11.628Z,99546.30
2023-08-29T05:33:17.712Z,99537.83
2023-08-29T05:38:26.559Z,99521.27
2023-08-29T05:43:32.254Z,99521.93
2023-08-29T05:48:37.974Z,99516.93
2023-08-29T05:53:43.726Z,99510.59
2023-08-29T05:58:49.566Z,99511.20
2023-08-29T06:03:55.560Z,99510.10
2023-08-29T06:09:02.024Z,99504.77
2023-08-29T06:14:08.734Z,99497.83
2023-08-29T06:19:14.320Z,99491.11
2023-08-29T06:24:20.480Z,99484.10
2023-08-29T06:29:26.251Z,99470.17
2023-08-29T06:34:31.914Z,99468.92
2023-08-29T06:39:38.527Z,99460.77
2023-08-29T06:44:43.972Z,99463.94
2023-08-29T06:49:49.579Z,99464.84
2023-08-29T06:54:55.431Z,99459.23
2023-08-29T07:00:00.882Z,99441.70
2023-08-29T07:05:09.740Z,99445.13
2023-08-29T07:10:16.154Z,99467.13
2023-08-29T07:15:22.259Z,99462.52
2023-08-29T07:20:28.088Z,99453.66
2023-08-29T07:25:44.871Z,99445.86
2023-08-29T07:30:52.671Z,99441.30
2023-08-29T07:36:02.307Z,99443.06
2023-08-29T07:41:08.486Z,99433.07
2023-08-29T07:46:14.479Z,99433.02
2023-08-29T07:51:20.134Z,99446.23
2023-08-29T07:56:25.946Z,99457.61
2023-08-29T08:01:31.954Z,99471.60
2023-08-29T08:06:37.710Z,99481.08
2023-08-29T08:11:43.528Z,99476.09
2023-08-29T08:16:49.243Z,99478.27
2023-08-29T08:21:55.199Z,99485.23
2023-08-29T08:27:00.712Z,99487.05
2023-08-29T08:32:06.754Z,99484.77
2023-08-29T08:37:12.831Z,99467.70
2023-08-29T08:42:19.633Z,99471.84
2023-08-29T08:47:26.629Z,99476.95
2023-08-29T08:52:34.609Z,99482.00
2023-08-29T08:57:40.709Z,99499.95
2023-08-29T09:02:48.169Z,99514.42
2023-08-29T09:07:54.236Z,99518.73
2023-08-29T09:12:59.999Z,99526.20
2023-08-29T09:18:07.428Z,99536.17
2023-08-29T09:23:24.169Z,99529.02
2023-08-29T09:28:30.373Z,99529.14
2023-08-29T09:33:37.386Z,99524.90
2023-08-29T09:38:43.433Z,99509.25
2023-08-29T09:43:50.716Z,99503.00
2023-08-29T09:48:59.273Z,99495.64
2023-08-29T09:54:12.151Z,99493.41
2023-08-29T09:59:22.028Z,99487.36
2023-08-29T10:04:30.373Z,99492.11
2023-08-29T10:09:37.168Z,99486.02
2023-08-29T10:14:45.159Z,99494.11
2023-08-29T10:19:52.356Z,99506.85
2023-08-29T10:25:00.439Z,99511.77
2023-08-29T10:30:08.036Z,99511.65
2023-08-29T10:35:24.637Z,99502.70
2023-08-29T10:40:36.954Z,99501.02
2023-08-29T10:45:49.767Z,99498.84
2023-08-29T10:51:12.508Z,99499.73
2023-08-29T10:56:19.495Z,99506.89
2023-08-29T11:01:32.359Z,99507.75
2023-08-29T11:06:55.213Z,99510.02
2023-08-29T11:12:14.303Z,99510.78
2023-08-29T11:17:27.108Z,99514.23
2023-08-29T11:22:33.305Z,99508.05
2023-08-29T11:27:40.394Z,99507.73
2023-08-29T11:32:53.111Z,99499.98
2023-08-29T11:38:00.473Z,99497.77
2023-08-29T11:43:23.771Z,99503.75
2023-08-29T11:48:35.155Z,99492.04
2023-08-29T11:53:40.888Z,99479.27
2023-08-29T11:58:47.043Z,99483.39
2023-08-29T12:03:54.048Z,99493.09
2023-08-29T12:09:01.310Z,99503.30
2023-08-29T12:14:08.694Z,99509.34
2023-08-29T12:19:17.956Z,99500.06
2023-08-29T12:24:24.072Z,99494.30
2023-08-29T12:29:30.002Z,99481.67
2023-08-29T12:34:35.765Z,99476.02
2023-08-29T12:39:41.694Z,99485.30
2023-08-29T12:44:47.490Z,99491.05
2023-08-29T12:49:53.741Z,99495.55
2023-08-29T12:54:59.319Z,99500.52
2023-08-29T13:00:08.374Z,99502.41
2023-08-29T13:05:14.268Z,99510.77
2023-08-29T13:10:20.130Z,99516.26
2023-08-29T13:15:33.775Z,99518.70
2023-08-29T13:20:45.361Z,99516.42
2023-08-29T13:25:51.048Z,99507.59
2023-08-29T13:30:59.896Z,99505.73
2023-08-29T13:36:07.386Z,99502.10
2023-08-29T13:41:13.416Z,99502.27
2023-08-29T13:46:19.284Z,99506.55
2023-08-29T13:51:26.531Z,99505.48
2023-08-29T13:56:33.333Z,99501.57
2023-08-29T14:01:42.937Z,99501.30
2023-08-29T14:06:49.699Z,99493.34
2023-08-29T14:11:55.623Z,99489.42
2023-08-29T14:17:01.270Z,99488.56
2023-08-29T14:22:07.173Z,99480.25
2023-08-29T14:27:13.175Z,99471.23
2023-08-29T14:32:18.824Z,99480.63
2023-08-29T14:37:24.628Z,99491.23
2023-08-29T14:42:30.406Z,99495.55
2023-08-29T14:47:37.793Z,99497.47
2023-08-29T14:52:43.528Z,99498.98
2023-08-29T14:57:49.709Z,99495.75
2023-08-29T15:02:55.905Z,99507.80
2023-08-29T15:08:02.651Z,99515.83
2023-08-29T15:13:09.399Z,99522.14
2023-08-29T15:18:15.439Z,99532.53
2023-08-29T15:23:21.070Z,99535.49
2023-08-29T15:28:30.027Z,99539.43
2023-08-29T15:33:36.822Z,99532.73
2023-08-29T15:38:43.851Z,99531.33
2023-08-29T15:43:49.711Z,99535.78
2023-08-29T15:48:55.275Z,99532.44
2023-08-29T15:54:00.817Z,99530.48
2023-08-29T15:59:07.390Z,99523.39
2023-08-29T16:04:13.106Z,99517.55
2023-08-29T16:09:31.155Z,99513.30
2023-08-29T16:14:37.354Z,99508.96
2023-08-29T16:19:45.414Z,99509.42
2023-08-29T16:24:57.178Z,99511.34
2023-08-29T16:30:02.988Z,99503.40
2023-08-29T16:35:09.705Z,99504.83
2023-08-29T16:40:15.623Z,99498.28
2023-08-29T16:45:21.308Z,99495.04
2023-08-29T16:50:27.374Z,99506.01
2023-08-29T16:55:37.658Z,99515.60
2023-08-29T17:00:43.513Z,99517.25
2023-08-29T17:05:49.270Z,99515.69
2023-08-29T17:10:55.443Z,99505.11
2023-08-29T17:16:01.790Z,99488.08
2023-08-29T17:21:07.521Z,99466.73
2023-08-29T17:26:13.148Z,99467.42
2023-08-29T17:31:18.801Z,99484.05
2023-08-29T17:36:27.491Z,99505.35
2023-08-29T17:41:35.812Z,99546.77
2023-08-29T17:46:44.676Z,99565.80
2023-08-29T17:51:50.306Z,99575.02
2023-08-29T17:56:57.789Z,99577.52
2023-08-29T18:02:03.948Z,99570.58
2023-08-29T18:07:09.764Z,99569.02
2023-08-29T18:12:15.522Z,99578.81
2023-08-29T18:17:21.454Z,99579.95
2023-08-29T18:22:27.834Z,99568.44
2023-08-29T18:27:33.661Z,99547.88
2023-08-29T18:32:39.419Z,99538.94
2023-08-29T18:37:45.488Z,99525.23
2023-08-29T18:42:51.920Z,99529.98
2023-08-29T18:47:58.107Z,99522.59
2023-08-29T18:53:05.014Z,99490.88
2023-08-29T18:58:11.879Z,99488.55
2023-08-29T19:03:20.112Z,99496.55
2023-08-29T19:08:26.353Z,99492.80
2023-08-29T19:13:34.460Z,99481.42
2023-08-29T19:18:40.759Z,99473.77
2023-08-29T19:23:47.835Z,99492.00
2023-08-29T19:29:01.110Z,99512.14
2023-08-29T19:34:09.490Z,99500.92
2023-08-29T19:39:18.889Z,99495.52
2023-08-29T19:44:37.271Z,99485.94
2023-08-29T19:49:48.583Z,99482.66
2023-08-29T19:54:55.039Z,99466.95
2023-08-29T20:00:06.403Z,99457.52
2023-08-29T20:05:19.216Z,99486.56
2023-08-29T20:10:25.342Z,99492.55
2023-08-29T20:15:31.391Z,99488.70
2023-08-29T20:20:41.659Z,99497.25
2023-08-29T20:25:47.529Z,99497.83
2023-08-29T20:30:58.509Z,99498.39
2023-08-29T20:36:06.652Z,99481.59
2023-08-29T20:41:12.503Z,99452.63
2023-08-29T20:46:18.461Z,99459.25
2023-08-29T20:51:24.548Z,99461.55
2023-08-29T20:56:36.762Z,99463.77
2023-08-29T21:01:46.174Z,99459.23
2023-08-29T21:06:51.778Z,99483.30
2023-08-29T21:11:57.573Z,99499.46
2023-08-29T21:17:03.917Z,99504.33
2023-08-29T21:22:09.523Z,99496.17
2023-08-29T21:27:20.684Z,99506.61
2023-08-29T21:32:26.195Z,99537.68
2023-08-29T21:37:45.932Z,99530.98
2023-08-29T21:42:51.666Z,99508.66
2023-08-29T21:47:57.859Z,99495.45
2023-08-29T21:53:04.364Z,99509.17
2023-08-29T21:58:17.693Z,99538.75
2023-08-29T22:03:24.796Z,99557.04
2023-08-29T22:08:30.527Z,99572.32
2023-08-29T22:13:36.134Z,99575.38
2023-08-29T22:18:41.772Z,99569.70
2023-08-29T22:23:47.773Z,99579.57
2023-08-29T22:28:53.315Z,99579.95
2023-08-29T22:33:59.103Z,99567.09
2023-08-29T22:39:04.741Z,99540.08
2023-08-29T22:44:10.697Z,99525.02
2023-08-29T22:49:16.349Z,99497.02
2023-08-29T22:54:22.076Z,99476.02
2023-08-29T22:59:30.202Z,99461.66
2023-08-29T23:04:36.073Z,99449.18
2023-08-29T23:09:43.722Z,99453.98
2023-08-29T23:14:49.263Z,99471.33
2023-08-29T23:20:09.362Z,99493.10
2023-08-29T23:25:17.242Z,99495.45
2023-08-29T23:30:23.355Z,99483.02
2023-08-29T23:35:29.038Z,99470.88
2023-08-29T23:40:38.397Z,99453.80
2023-08-29T23:45:44.461Z,99437.05
2023-08-29T23:50:50.273Z,99419.11
2023-08-29T23:55:56.038Z,99405.49
